Kinmount, Canada
Current Conditions -  °F | °C
As of 8:00 PM on Sunday 21 Dec 2014 (Local Time) from CYQA Reporting Station
Overcast Overcast  
Wind Chill: -3°   Ceiling: 3100
Heat Index: -3°   Visibility: 9mi
Dew Point: -5°   Wind: 0mph
Humidity: 86%   Direction: NA
Pressure: 30.26"   Gusts: NA
Location:  44.78°N, 78.65°W
Report Text: CYQA 220100Z AUTO 00000KT 9SM OVC031 M03/M05 A3026 RMK SLP265
Loading
Personal Weather Stations






























Interactive Weather Map New forecast layout! Learn more

10-Day Weather Forecast

Advertisements
Track Severe Weather on mobile